Time;durP1;ratioP1;P1;durP2;ratioP2;P2;SDS_P1;SDS_P2;PMS_P1;PMS_P2;Temp;Humidity;BMP_temperature;BMP_pressure;BME280_temperature;BME280_humidity;BME280_pressure;Samples;Min_cycle;Max_cycle;Signal;HPM_P1;HPM_P2
2022/05/28 00:00:09;;;;;;;;;;;;;;;21.52;64.19;100109.44;2040760;28;19914;-50
2022/05/28 00:01:12;;;;;;;;;;;;;;;21.52;64.06;100112.19;2045070;28;19914;-51
2022/05/28 00:02:13;;;;;;;;;;;;;;;21.52;64.59;100111.44;2050589;28;19918;-52
2022/05/28 00:03:13;;;;;;;;;;;;;;;21.52;64.61;100098.41;2042858;28;19906;-48
2022/05/28 00:04:15;;;;;;;;;;;;;;;21.53;65.02;100104.69;2045555;28;19906;-48
2022/05/28 00:05:15;;;;;;;;;;;;;;;21.52;64.65;100106.66;2042901;28;19929;-50
2022/05/28 00:06:17;;;;;;;;;;;;;;;21.52;64.67;100103.16;2047094;28;20525;-52
2022/05/28 00:07:17;;;;;;;;;;;;;;;21.52;64.52;100100.41;2043622;28;19914;-49
2022/05/28 00:08:17;;;;;;;;;;;;;;;21.51;64.18;100091.38;2042449;28;20575;-49
2022/05/28 00:09:17;;;;;;;;;;;;;;;21.51;65.35;100096.09;2044778;28;20291;-48
2022/05/28 00:10:18;;;;;;;;;;;;;;;21.51;65.57;100099.63;2042578;28;19914;-52
2022/05/28 00:11:27;;;;;;;;;;;;;;;21.51;65.59;100101.59;2044412;28;19914;-49
2022/05/28 00:12:29;;;;;;;;;;;;;;;21.50;65.79;100095.31;2052272;28;20681;-48
2022/05/28 00:13:29;;;;;;;;;;;;;;;21.51;65.78;100090.59;2050049;28;19977;-52
2022/05/28 00:14:29;;;;;;;;;;;;;;;21.50;65.68;100095.31;2043166;28;19913;-50
2022/05/28 00:15:30;;;;;;;;;;;;;;;21.49;65.98;100096.53;2043757;28;19914;-49
2022/05/28 00:16:30;;;;;;;;;;;;;;;21.49;65.89;100091.00;2041048;28;20695;-50
2022/05/28 00:17:31;;;;;;;;;;;;;;;21.50;66.15;100089.81;2043807;28;19925;-49
2022/05/28 00:18:31;;;;;;;;;;;;;;;21.49;66.04;100088.25;2042933;28;19921;-50
2022/05/28 00:19:31;;;;;;;;;;;;;;;21.48;65.89;100093.00;2044836;28;19965;-51
2022/05/28 00:20:32;;;;;;;;;;;;;;;21.48;66.35;100093.00;2044693;28;20317;-50
2022/05/28 00:21:33;;;;;;;;;;;;;;;21.48;65.80;100092.22;2042544;28;19998;-50
2022/05/28 00:22:38;;;;;;;;;;;;;;;21.48;66.54;100089.44;2043144;28;19918;-51
2022/05/28 00:23:38;;;;;;;;;;;;;;;21.47;65.72;100093.41;2038644;28;20777;-50
2022/05/28 00:24:39;;;;;;;;;;;;;;;21.47;64.73;100093.41;2041842;28;20291;-50
2022/05/28 00:25:39;;;;;;;;;;;;;;;21.46;65.88;100089.91;2044624;28;20229;-50
2022/05/28 00:26:43;;;;;;;;;;;;;;;21.46;65.88;100094.63;2037594;28;20006;-50
2022/05/28 00:27:44;;;;;;;;;;;;;;;21.45;65.16;100093.84;2045716;28;19914;-51
2022/05/28 00:28:44;;;;;;;;;;;;;;;21.45;64.62;100088.34;2055710;28;19920;-52
2022/05/28 00:29:44;;;;;;;;;;;;;;;21.45;64.47;100088.34;2037988;28;20332;-52
2022/05/28 00:30:45;;;;;;;;;;;;;;;21.45;65.03;100080.09;2043954;28;19914;-51
2022/05/28 00:31:45;;;;;;;;;;;;;;;21.45;65.42;100085.59;2043086;28;20464;-50
2022/05/28 00:32:45;;;;;;;;;;;;;;;21.45;66.35;100076.53;2043887;28;20497;-51
2022/05/28 00:33:46;;;;;;;;;;;;;;;21.46;66.56;100083.63;2044112;28;19914;-51
2022/05/28 00:34:46;;;;;;;;;;;;;;;21.45;66.01;100084.81;2043203;28;19918;-50
2022/05/28 00:35:46;;;;;;;;;;;;;;;21.45;66.46;100079.31;2043793;28;20190;-51
2022/05/28 00:36:47;;;;;;;;;;;;;;;21.45;66.71;100087.56;2043080;28;19910;-50
2022/05/28 00:37:47;;;;;;;;;;;;;;;21.44;66.58;100078.53;2045006;28;19964;-51
2022/05/28 00:38:48;;;;;;;;;;;;;;;21.43;66.93;100074.22;2044040;28;19914;-51
2022/05/28 00:39:48;;;;;;;;;;;;;;;21.44;66.69;100080.50;2042570;28;19921;-52
2022/05/28 00:40:49;;;;;;;;;;;;;;;21.42;65.65;100078.16;2043258;28;19914;-51
2022/05/28 00:41:50;;;;;;;;;;;;;;;21.43;65.72;100079.72;2038537;28;20708;-51
2022/05/28 00:42:50;;;;;;;;;;;;;;;21.43;65.49;100081.69;2041502;28;20151;-50
2022/05/28 00:43:50;;;;;;;;;;;;;;;21.43;65.23;100078.94;2041632;28;19915;-51
2022/05/28 00:44:51;;;;;;;;;;;;;;;21.42;66.08;100072.66;2042183;28;20132;-51
2022/05/28 00:45:54;;;;;;;;;;;;;;;21.41;65.56;100071.09;2043442;28;19906;-52
2022/05/28 00:46:56;;;;;;;;;;;;;;;21.42;66.20;100074.63;2043845;28;19910;-51
2022/05/28 00:47:58;;;;;;;;;;;;;;;21.42;66.20;100066.38;2043408;28;19906;-50
2022/05/28 00:49:01;;;;;;;;;;;;;;;21.41;66.41;100065.59;2043630;28;19993;-50
2022/05/28 00:50:03;;;;;;;;;;;;;;;21.41;66.30;100070.34;2043824;28;19920;-52
2022/05/28 00:51:06;;;;;;;;;;;;;;;21.41;66.42;100071.09;2044702;28;20001;-48
2022/05/28 00:52:07;;;;;;;;;;;;;;;21.40;66.18;100063.28;2043114;28;19945;-49
2022/05/28 00:53:08;;;;;;;;;;;;;;;21.40;65.78;100064.06;2041921;28;19960;-52
2022/05/28 00:54:08;;;;;;;;;;;;;;;21.40;66.77;100066.03;2043701;28;19921;-51
2022/05/28 00:55:09;;;;;;;;;;;;;;;21.40;66.79;100064.06;2041897;28;19926;-50
2022/05/28 00:56:11;;;;;;;;;;;;;;;21.40;66.79;100055.03;2035881;28;20015;-50
2022/05/28 00:57:13;;;;;;;;;;;;;;;21.40;67.23;100049.50;2042528;28;19914;-52
2022/05/28 00:58:13;;;;;;;;;;;;;;;21.40;67.13;100049.50;2043939;28;19914;-50
2022/05/28 00:59:13;;;;;;;;;;;;;;;21.39;67.07;100056.22;2044099;28;19906;-51
2022/05/28 01:00:19;;;;;;;;;;;;;;;21.37;66.70;100045.63;2041817;28;19921;-50
2022/05/28 01:01:23;;;;;;;;;;;;;;;21.38;66.54;100043.63;2043371;28;19948;-52
2022/05/28 01:02:44;;;;;;;;;;;;;;;21.37;66.56;100044.84;2043828;28;20427;-49
2022/05/28 01:03:47;;;;;;;;;;;;;;;21.37;65.92;100042.09;2042060;28;19956;-50
2022/05/28 01:04:52;;;;;;;;;;;;;;;21.37;65.92;100045.63;2042271;28;20196;-52
2022/05/28 01:06:28;;;;;;;;;;;;;;;21.37;65.47;100042.09;2044823;28;19914;-52
2022/05/28 01:07:57;;;;;;;;;;;;;;;21.36;65.37;100044.06;2028152;29;19906;-50
2022/05/28 01:09:18;;;;;;;;;;;;;;;21.36;65.58;100043.31;2026436;29;20010;-52
2022/05/28 01:10:26;;;;;;;;;;;;;;;21.35;65.85;100039.78;2021166;29;19922;-51
2022/05/28 01:11:31;;;;;;;;;;;;;;;21.35;65.94;100041.75;2040124;28;19917;-49
2022/05/28 01:12:44;;;;;;;;;;;;;;;21.33;66.11;100039.44;2044487;28;20377;-51
2022/05/28 01:13:54;;;;;;;;;;;;;;;21.33;66.41;100041.41;2040814;28;19918;-49
2022/05/28 01:14:54;;;;;;;;;;;;;;;21.36;66.72;100043.31;2048697;28;19960;-52
2022/05/28 01:16:01;;;;;;;;;;;;;;;21.34;66.75;100037.44;2043673;28;19913;-52
2022/05/28 01:17:14;;;;;;;;;;;;;;;21.32;66.78;100031.56;2039706;28;20001;-48
2022/05/28 01:18:20;;;;;;;;;;;;;;;21.33;67.07;100033.13;2042839;28;19914;-50
2022/05/28 01:19:44;;;;;;;;;;;;;;;21.33;67.08;100035.88;2044742;28;19914;-51
2022/05/28 01:20:48;;;;;;;;;;;;;;;21.31;67.35;100021.75;2042658;28;19914;-51
2022/05/28 01:22:08;;;;;;;;;;;;;;;21.32;66.76;100031.56;2046693;28;19914;-50
2022/05/28 01:23:16;;;;;;;;;;;;;;;21.30;66.23;100023.75;2039678;28;19917;-48
2022/05/28 01:24:21;;;;;;;;;;;;;;;21.32;66.35;100026.06;2043028;28;19916;-50
2022/05/28 01:25:27;;;;;;;;;;;;;;;21.30;66.17;100025.75;2043541;28;19913;-51
2022/05/28 01:26:46;;;;;;;;;;;;;;;21.31;66.62;100027.28;2043631;28;19914;-52
2022/05/28 01:27:53;;;;;;;;;;;;;;;21.29;66.93;100024.19;2041305;28;19925;-49
2022/05/28 01:28:59;;;;;;;;;;;;;;;21.29;67.08;100021.44;2044087;28;20217;-51
2022/05/28 01:30:03;;;;;;;;;;;;;;;21.29;66.44;100021.44;2045229;28;19914;-51
2022/05/28 01:31:05;;;;;;;;;;;;;;;21.29;66.72;100027.72;2046850;28;19921;-49
2022/05/28 01:32:05;;;;;;;;;;;;;;;21.29;66.22;100024.19;2042821;28;19952;-50
2022/05/28 01:33:07;;;;;;;;;;;;;;;21.29;66.07;100024.19;2041838;28;20833;-51
2022/05/28 01:34:08;;;;;;;;;;;;;;;21.29;66.38;100021.44;2042884;28;19953;-51
2022/05/28 01:35:10;;;;;;;;;;;;;;;21.28;66.58;100022.63;2044124;28;19933;-51
2022/05/28 01:36:11;;;;;;;;;;;;;;;21.27;66.50;100021.06;2046351;28;19949;-50
2022/05/28 01:37:12;;;;;;;;;;;;;;;21.28;66.71;100022.63;2044847;28;19914;-51
2022/05/28 01:38:13;;;;;;;;;;;;;;;21.27;67.22;100021.06;2045935;28;19914;-49
2022/05/28 01:39:14;;;;;;;;;;;;;;;21.27;66.90;100010.06;2044508;28;20314;-48
2022/05/28 01:40:16;;;;;;;;;;;;;;;21.26;66.69;100003.00;2048736;28;19906;-49
2022/05/28 01:41:17;;;;;;;;;;;;;;;21.26;67.09;100009.28;2044773;28;19957;-48
2022/05/28 01:42:18;;;;;;;;;;;;;;;21.27;66.90;100010.06;2044755;28;20322;-50
2022/05/28 01:43:19;;;;;;;;;;;;;;;21.26;67.07;100008.50;2045034;28;19940;-52
2022/05/28 01:44:21;;;;;;;;;;;;;;;21.25;67.21;100009.72;2044496;28;19945;-51
2022/05/28 01:45:25;;;;;;;;;;;;;;;21.24;67.52;100005.41;2044351;28;19953;-49
2022/05/28 01:46:27;;;;;;;;;;;;;;;21.24;67.07;100006.19;2044859;28;19953;-51
2022/05/28 01:47:28;;;;;;;;;;;;;;;21.23;67.12;100004.63;2045125;28;20009;-51
2022/05/28 01:48:29;;;;;;;;;;;;;;;21.24;66.74;100006.19;2043472;28;19973;-49
2022/05/28 01:49:29;;;;;;;;;;;;;;;21.24;67.13;100005.41;2045888;28;20489;-52
2022/05/28 01:50:32;;;;;;;;;;;;;;;21.24;67.24;100000.69;2045906;28;20337;-48
2022/05/28 01:51:35;;;;;;;;;;;;;;;21.24;67.48;99994.41;2043849;28;19921;-52
2022/05/28 01:52:36;;;;;;;;;;;;;;;21.23;67.60;99992.84;2040609;28;20304;-51
2022/05/28 01:54:57;;;;;;;;;;;;;;;21.23;67.21;99990.09;2048801;28;19917;-50
2022/05/28 01:55:59;;;;;;;;;;;;;;;21.23;67.42;99995.59;2039215;28;21097;-52
2022/05/28 01:57:00;;;;;;;;;;;;;;;21.23;67.43;99988.13;2042785;28;19965;-50
2022/05/28 01:58:00;;;;;;;;;;;;;;;21.22;67.02;99988.53;2043341;28;20747;-50
2022/05/28 01:59:01;;;;;;;;;;;;;;;21.21;67.11;99989.72;2052310;28;19917;-50
2022/05/28 02:00:01;;;;;;;;;;;;;;;21.21;66.92;99990.50;2045675;28;20350;-51
2022/05/28 02:01:02;;;;;;;;;;;;;;;21.21;67.02;99979.50;2045184;28;20086;-52
2022/05/28 02:02:06;;;;;;;;;;;;;;;21.21;66.69;99989.72;2041925;28;20160;-46
2022/05/28 02:03:06;;;;;;;;;;;;;;;21.20;66.53;99977.19;2041371;28;20045;-47
2022/05/28 02:04:07;;;;;;;;;;;;;;;21.20;66.49;99986.22;2042968;28;19918;-50
2022/05/28 02:05:09;;;;;;;;;;;;;;;21.21;66.66;99984.22;2048710;28;19909;-50
2022/05/28 02:06:10;;;;;;;;;;;;;;;21.20;66.58;99983.47;2050720;28;19913;-47
2022/05/28 02:07:10;;;;;;;;;;;;;;;21.19;66.53;99976.41;2041267;28;19915;-48
2022/05/28 02:08:10;;;;;;;;;;;;;;;21.19;66.06;99973.66;2045052;28;19914;-48
2022/05/28 02:09:13;;;;;;;;;;;;;;;21.19;66.30;99975.63;2041503;28;19914;-46
2022/05/28 02:10:15;;;;;;;;;;;;;;;21.20;66.00;99982.69;2046071;28;19937;-48
2022/05/28 02:11:21;;;;;;;;;;;;;;;21.18;66.27;99974.84;2046418;28;20276;-50
2022/05/28 02:12:25;;;;;;;;;;;;;;;21.19;66.17;99975.63;2044688;28;20139;-50
2022/05/28 02:13:29;;;;;;;;;;;;;;;21.19;66.05;99975.63;2043706;28;19906;-50
2022/05/28 02:14:48;;;;;;;;;;;;;;;21.18;65.97;99976.84;2045652;28;20253;-48
2022/05/28 02:15:51;;;;;;;;;;;;;;;21.16;66.59;99971.75;2041947;28;19986;-49
2022/05/28 02:16:57;;;;;;;;;;;;;;;21.17;66.58;99964.25;2043622;28;20005;-49
2022/05/28 02:18:16;;;;;;;;;;;;;;;21.17;67.04;99970.56;2046257;28;19957;-50
2022/05/28 02:19:26;;;;;;;;;;;;;;;21.16;67.23;99960.72;2048795;28;19910;-47
2022/05/28 02:20:45;;;;;;;;;;;;;;;21.16;66.71;99962.72;2043142;28;19918;-50
2022/05/28 02:21:49;;;;;;;;;;;;;;;21.16;66.92;99957.19;2048713;28;19914;-47
2022/05/28 02:22:54;;;;;;;;;;;;;;;21.15;66.85;99953.66;2045776;28;19928;-49
2022/05/28 02:24:02;;;;;;;;;;;;;;;21.15;66.71;99955.69;2045831;28;20229;-50
2022/05/28 02:25:09;;;;;;;;;;;;;;;21.15;67.06;99959.19;2041170;28;19918;-48
2022/05/28 02:26:12;;;;;;;;;;;;;;;21.15;67.36;99964.69;2043964;28;19918;-49
2022/05/28 02:27:14;;;;;;;;;;;;;;;21.15;67.52;99947.41;2044439;28;20345;-49
2022/05/28 02:28:14;;;;;;;;;;;;;;;21.14;66.90;99956.84;2042905;28;19914;-47
2022/05/28 02:29:15;;;;;;;;;;;;;;;21.14;67.13;99951.34;2045942;28;19906;-48
2022/05/28 02:30:16;;;;;;;;;;;;;;;21.14;66.70;99948.59;2044389;28;19914;-46
2022/05/28 02:31:18;;;;;;;;;;;;;;;21.14;66.95;99951.34;2045195;28;19917;-49
2022/05/28 02:32:20;;;;;;;;;;;;;;;21.13;66.81;99960.78;2040529;28;20216;-48
2022/05/28 02:33:21;;;;;;;;;;;;;;;21.12;66.72;99954.50;2039298;28;20352;-47
2022/05/28 02:34:21;;;;;;;;;;;;;;;21.13;66.29;99944.28;2045555;28;19920;-49
2022/05/28 02:35:21;;;;;;;;;;;;;;;21.12;66.45;99951.75;2043653;28;20285;-48
2022/05/28 02:36:22;;;;;;;;;;;;;;;21.13;66.70;99955.28;2045420;28;19913;-47
2022/05/28 02:37:25;;;;;;;;;;;;;;;21.13;66.22;99947.03;2043842;28;20494;-48
2022/05/28 02:38:26;;;;;;;;;;;;;;;21.12;66.65;99946.25;2043223;28;20281;-50
2022/05/28 02:39:26;;;;;;;;;;;;;;;21.12;66.28;99953.72;2044882;28;19914;-50
2022/05/28 02:40:26;;;;;;;;;;;;;;;21.11;66.58;99946.66;2041961;28;19921;-48
2022/05/28 02:41:27;;;;;;;;;;;;;;;21.12;67.27;99945.47;2044463;28;19959;-48
2022/05/28 02:42:27;;;;;;;;;;;;;;;21.11;67.23;99935.66;2041811;28;19972;-47
2022/05/28 02:43:29;;;;;;;;;;;;;;;21.11;66.95;99952.19;2041453;28;20009;-48
2022/05/28 02:44:29;;;;;;;;;;;;;;;21.11;67.01;99941.16;2045174;28;20333;-50
2022/05/28 02:45:30;;;;;;;;;;;;;;;21.10;66.83;99939.63;2041555;28;19972;-50
2022/05/28 02:46:30;;;;;;;;;;;;;;;21.10;66.56;99942.41;2050981;28;19913;-49
2022/05/28 02:47:31;;;;;;;;;;;;;;;21.09;66.56;99936.09;2052318;28;20531;-50
2022/05/28 02:48:31;;;;;;;;;;;;;;;21.09;66.98;99936.09;2040739;28;20325;-46
2022/05/28 02:49:32;;;;;;;;;;;;;;;21.08;66.77;99938.09;2036243;28;19918;-50
2022/05/28 02:50:32;;;;;;;;;;;;;;;21.09;66.88;99941.63;2042844;28;19922;-49
2022/05/28 02:51:34;;;;;;;;;;;;;;;21.07;66.44;99933.78;2045483;28;19944;-46
2022/05/28 02:52:34;;;;;;;;;;;;;;;21.08;66.47;99934.56;2045346;28;20268;-48
2022/05/28 02:53:35;;;;;;;;;;;;;;;21.07;66.69;99930.25;2044283;28;20351;-49
2022/05/28 02:54:35;;;;;;;;;;;;;;;21.07;66.42;99933.78;2043821;28;20717;-50
2022/05/28 02:55:35;;;;;;;;;;;;;;;21.07;66.16;99930.25;2044492;28;20402;-49
2022/05/28 02:56:36;;;;;;;;;;;;;;;21.06;66.27;99923.97;2043863;28;19917;-48
2022/05/28 02:57:36;;;;;;;;;;;;;;;21.05;65.90;99925.16;2043888;28;20016;-49
2022/05/28 02:58:37;;;;;;;;;;;;;;;21.06;65.78;99929.47;2045610;28;20008;-50
2022/05/28 02:59:38;;;;;;;;;;;;;;;21.05;65.66;99930.66;2044807;28;19914;-47
2022/05/28 03:00:38;;;;;;;;;;;;;;;21.05;65.63;99930.66;2045113;28;19924;-46
2022/05/28 03:01:38;;;;;;;;;;;;;;;21.05;65.74;99933.41;2041324;28;19913;-48
2022/05/28 03:02:39;;;;;;;;;;;;;;;21.05;65.94;99927.91;2043436;28;19918;-52
2022/05/28 03:03:39;;;;;;;;;;;;;;;21.05;65.69;99929.88;2046334;28;19913;-49
2022/05/28 03:04:39;;;;;;;;;;;;;;;21.04;65.46;99926.34;2039062;28;19914;-50
2022/05/28 03:05:39;;;;;;;;;;;;;;;21.05;65.85;99930.66;2042978;28;20792;-47
2022/05/28 03:06:40;;;;;;;;;;;;;;;21.03;65.92;99930.34;2039674;28;20404;-48
2022/05/28 03:07:40;;;;;;;;;;;;;;;21.02;65.75;99930.75;2040338;28;20837;-46
2022/05/28 03:08:40;;;;;;;;;;;;;;;21.02;66.16;99928.78;2044648;28;20347;-49
2022/05/28 03:09:41;;;;;;;;;;;;;;;21.03;66.33;99938.59;2043892;28;19942;-49
2022/05/28 03:10:41;;;;;;;;;;;;;;;21.02;66.43;99923.28;2042897;28;20240;-48
2022/05/28 03:11:42;;;;;;;;;;;;;;;21.02;66.14;99931.53;2045573;28;20370;-49
2022/05/28 03:12:42;;;;;;;;;;;;;;;21.03;66.10;99932.31;2045158;28;20409;-49
2022/05/28 03:13:42;;;;;;;;;;;;;;;21.03;66.05;99932.31;2045021;28;20084;-47
2022/05/28 03:14:43;;;;;;;;;;;;;;;21.03;65.74;99937.81;2045897;28;19929;-46
2022/05/28 03:15:43;;;;;;;;;;;;;;;21.01;65.35;99921.72;2043689;28;19928;-48
2022/05/28 03:16:44;;;;;;;;;;;;;;;21.02;65.62;99926.03;2044866;28;20332;-48
2022/05/28 03:17:46;;;;;;;;;;;;;;;21.02;65.14;99928.78;2043943;28;19928;-47
2022/05/28 03:18:46;;;;;;;;;;;;;;;21.00;65.83;99920.16;2044687;28;19918;-48
2022/05/28 03:19:46;;;;;;;;;;;;;;;21.00;65.80;99925.69;2051527;28;19916;-47
2022/05/28 03:20:46;;;;;;;;;;;;;;;21.00;65.99;99919.38;2052558;28;20289;-49
2022/05/28 03:21:47;;;;;;;;;;;;;;;20.99;65.83;99921.38;2043780;28;20203;-50
2022/05/28 03:22:47;;;;;;;;;;;;;;;20.99;65.65;99915.84;2043393;28;20218;-50
2022/05/28 03:23:47;;;;;;;;;;;;;;;20.99;65.21;99924.13;2039989;28;19958;-49
2022/05/28 03:24:48;;;;;;;;;;;;;;;21.00;65.61;99922.16;2040385;28;20368;-49
2022/05/28 03:25:48;;;;;;;;;;;;;;;20.99;65.67;99924.13;2039207;28;19921;-49
2022/05/28 03:26:49;;;;;;;;;;;;;;;20.99;65.76;99920.63;2038362;28;19941;-50
2022/05/28 03:27:49;;;;;;;;;;;;;;;20.99;66.20;99920.63;2038183;28;20079;-49
2022/05/28 03:28:50;;;;;;;;;;;;;;;20.98;66.37;99911.59;2042272;28;19925;-47
2022/05/28 03:29:50;;;;;;;;;;;;;;;20.97;66.26;99910.03;2042038;28;20365;-48
2022/05/28 03:30:50;;;;;;;;;;;;;;;20.97;66.16;99920.25;2042663;28;19914;-54
2022/05/28 03:31:51;;;;;;;;;;;;;;;20.97;66.04;99912.00;2043102;28;19921;-49
2022/05/28 03:32:51;;;;;;;;;;;;;;;20.96;66.28;99916.72;2043760;28;19957;-50
2022/05/28 03:33:52;;;;;;;;;;;;;;;20.95;66.57;99909.66;2043590;28;20222;-48
2022/05/28 03:34:52;;;;;;;;;;;;;;;20.96;66.25;99916.72;2042071;28;19909;-47
2022/05/28 03:35:52;;;;;;;;;;;;;;;20.96;66.49;99922.25;2042653;28;19914;-50
2022/05/28 03:36:53;;;;;;;;;;;;;;;20.97;66.00;99925.78;2039408;28;20215;-50
2022/05/28 03:37:53;;;;;;;;;;;;;;;20.95;65.68;99917.16;2038636;28;19977;-49
2022/05/28 03:38:53;;;;;;;;;;;;;;;20.95;65.79;99911.66;2041867;28;19913;-48
2022/05/28 03:39:54;;;;;;;;;;;;;;;20.95;65.78;99923.44;2044202;28;19920;-50
2022/05/28 03:40:54;;;;;;;;;;;;;;;20.95;65.97;99911.66;2042708;28;20304;-47
2022/05/28 03:41:55;;;;;;;;;;;;;;;20.94;65.83;99921.88;2044823;28;19968;-49
2022/05/28 03:42:55;;;;;;;;;;;;;;;20.94;65.81;99916.38;2041007;28;19906;-47
2022/05/28 03:43:55;;;;;;;;;;;;;;;20.94;66.11;99921.88;2040565;28;19933;-47
2022/05/28 03:44:56;;;;;;;;;;;;;;;20.93;65.86;99916.81;2042384;28;19913;-48
2022/05/28 03:45:57;;;;;;;;;;;;;;;20.92;65.86;99913.28;2042936;28;20344;-47
2022/05/28 03:46:57;;;;;;;;;;;;;;;20.92;66.00;99918.03;2044009;28;19929;-46
2022/05/28 03:47:57;;;;;;;;;;;;;;;20.92;66.01;99920.78;2042672;28;19919;-49
2022/05/28 03:49:00;;;;;;;;;;;;;;;20.91;65.89;99914.50;2044550;28;20379;-46
2022/05/28 03:50:01;;;;;;;;;;;;;;;20.92;65.44;99918.03;2043290;28;19920;-47
2022/05/28 03:51:01;;;;;;;;;;;;;;;20.91;65.85;99919.22;2043646;28;20328;-50
2022/05/28 03:52:02;;;;;;;;;;;;;;;20.90;65.84;99910.19;2039268;28;20280;-50
2022/05/28 03:53:03;;;;;;;;;;;;;;;20.91;65.68;99909.00;2043979;28;19965;-46
2022/05/28 03:54:03;;;;;;;;;;;;;;;20.91;65.78;99910.97;2043453;28;19913;-47
2022/05/28 03:55:04;;;;;;;;;;;;;;;20.90;65.26;99918.44;2045619;28;19964;-48
2022/05/28 03:56:04;;;;;;;;;;;;;;;20.89;65.46;99916.88;2042609;28;20255;-49
2022/05/28 03:57:06;;;;;;;;;;;;;;;20.91;65.57;99916.47;2035527;28;20149;-50
2022/05/28 03:58:06;;;;;;;;;;;;;;;20.89;65.57;99908.63;2040086;28;19925;-48
2022/05/28 03:59:08;;;;;;;;;;;;;;;20.89;65.55;99908.63;2040531;28;20004;-50
2022/05/28 04:00:09;;;;;;;;;;;;;;;20.89;65.66;99905.88;2039607;28;19917;-49
2022/05/28 04:01:09;;;;;;;;;;;;;;;20.88;65.48;99911.84;2043728;28;19921;-53
2022/05/28 04:02:09;;;;;;;;;;;;;;;20.89;65.21;99908.63;2042040;28;20333;-55
2022/05/28 04:03:10;;;;;;;;;;;;;;;20.87;64.99;99905.56;2041725;28;20356;-54
2022/05/28 04:04:10;;;;;;;;;;;;;;;20.89;64.98;99913.38;2043457;28;19918;-54
2022/05/28 04:05:10;;;;;;;;;;;;;;;20.88;65.12;99909.84;2043560;28;19914;-54
2022/05/28 04:06:11;;;;;;;;;;;;;;;20.89;64.96;99914.13;2041713;28;19926;-54
2022/05/28 04:07:12;;;;;;;;;;;;;;;20.88;65.13;99912.63;2042265;28;20531;-54
2022/05/28 04:08:12;;;;;;;;;;;;;;;20.88;65.13;99920.09;2043245;28;20294;-55
2022/05/28 04:09:12;;;;;;;;;;;;;;;20.88;65.13;99912.63;2041073;28;20323;-54
2022/05/28 04:10:13;;;;;;;;;;;;;;;20.88;64.99;99912.63;2039940;28;19914;-54
2022/05/28 04:11:14;;;;;;;;;;;;;;;20.87;65.08;99910.28;2040793;28;19918;-53
2022/05/28 04:12:14;;;;;;;;;;;;;;;20.86;64.87;99906.75;2042217;28;19965;-54
2022/05/28 04:13:15;;;;;;;;;;;;;;;20.86;65.11;99908.72;2039639;28;19918;-54
2022/05/28 04:14:15;;;;;;;;;;;;;;;20.85;65.21;99912.69;2041246;28;19917;-54
2022/05/28 04:15:15;;;;;;;;;;;;;;;20.84;65.38;99903.63;2039299;28;20240;-54
2022/05/28 04:16:16;;;;;;;;;;;;;;;20.84;65.06;99911.91;2041503;28;19914;-48
2022/05/28 04:17:16;;;;;;;;;;;;;;;20.85;65.17;99898.91;2040480;28;20148;-48
2022/05/28 04:18:16;;;;;;;;;;;;;;;20.84;65.19;99905.63;2039941;28;20158;-49
2022/05/28 04:19:17;;;;;;;;;;;;;;;20.83;65.26;99902.09;2042197;28;19921;-49
2022/05/28 04:20:17;;;;;;;;;;;;;;;20.84;65.02;99909.16;2043879;28;19984;-47
2022/05/28 04:21:18;;;;;;;;;;;;;;;20.83;64.93;99902.09;2042489;28;20322;-46
2022/05/28 04:22:18;;;;;;;;;;;;;;;20.83;65.14;99904.84;2040514;28;19928;-50
2022/05/28 04:23:18;;;;;;;;;;;;;;;20.84;65.07;99905.63;2042122;28;19918;-46
2022/05/28 04:24:19;;;;;;;;;;;;;;;20.83;65.23;99899.34;2042251;28;20100;-48
2022/05/28 04:25:19;;;;;;;;;;;;;;;20.82;65.10;99906.06;2045361;28;19937;-47
2022/05/28 04:26:19;;;;;;;;;;;;;;;20.82;65.20;99908.81;2039741;28;19914;-50
2022/05/28 04:27:20;;;;;;;;;;;;;;;20.82;65.18;99902.53;2041295;28;20012;-47
2022/05/28 04:28:20;;;;;;;;;;;;;;;20.82;65.03;99908.81;2042791;28;19915;-47
2022/05/28 04:29:21;;;;;;;;;;;;;;;20.81;65.05;99903.72;2042714;28;19992;-48
2022/05/28 04:30:21;;;;;;;;;;;;;;;20.81;65.16;99907.25;2044848;28;19941;-49
2022/05/28 04:31:21;;;;;;;;;;;;;;;20.81;65.41;99910.00;2042285;28;19949;-47
2022/05/28 04:32:21;;;;;;;;;;;;;;;20.80;65.08;99905.72;2048458;28;20363;-48
2022/05/28 04:33:22;;;;;;;;;;;;;;;20.81;65.05;99907.25;2050347;28;20363;-49
2022/05/28 04:34:22;;;;;;;;;;;;;;;20.80;64.89;99905.72;2048915;28;19968;-49
2022/05/28 04:35:22;;;;;;;;;;;;;;;20.79;64.91;99901.41;2042590;28;20195;-46
2022/05/28 04:36:23;;;;;;;;;;;;;;;20.80;64.90;99893.91;2043427;28;19928;-49
2022/05/28 04:37:23;;;;;;;;;;;;;;;20.80;64.82;99899.44;2043077;28;19917;-49
2022/05/28 04:38:23;;;;;;;;;;;;;;;20.79;65.00;99895.91;2044400;28;19980;-49
2022/05/28 04:39:24;;;;;;;;;;;;;;;20.80;65.08;99902.19;2043139;28;19921;-49
2022/05/28 04:40:24;;;;;;;;;;;;;;;20.79;64.85;99904.16;2043917;28;20017;-49
2022/05/28 04:41:24;;;;;;;;;;;;;;;20.78;65.13;99891.59;2040991;28;20110;-49
2022/05/28 04:42:25;;;;;;;;;;;;;;;20.78;65.08;99902.59;2040565;28;19965;-50
2022/05/28 04:43:25;;;;;;;;;;;;;;;20.78;64.87;99897.09;2043982;28;20325;-47
2022/05/28 04:44:25;;;;;;;;;;;;;;;20.80;64.78;99894.69;2042536;28;19965;-47
2022/05/28 04:45:26;;;;;;;;;;;;;;;20.78;64.62;99897.09;2041315;28;19920;-47
2022/05/28 04:46:26;;;;;;;1.60;0.70;;;;;;;20.79;64.54;99898.66;2042263;28;19949;-48
2022/05/28 04:47:26;;;;;;;;;;;;;;;20.77;64.84;99892.81;2043646;28;19927;-48
2022/05/28 04:48:27;;;;;;;;;;;;;;;20.78;64.75;99902.59;2040552;28;19914;-48
2022/05/28 04:49:27;;;;;;;;;;;;;;;20.77;64.89;99901.06;2040297;28;20109;-50
2022/05/28 04:50:27;;;;;;;;;;;;;;;20.76;65.00;99893.25;2040901;28;20445;-48
2022/05/28 04:51:28;;;;;;;;;;;;;;;20.75;64.79;99903.47;2042243;28;19910;-49
2022/05/28 04:52:28;;;;;;;;;;;;;;;20.76;65.05;99898.75;2041858;28;20448;-49
2022/05/28 04:53:28;;;;;;;;;;;;;;;20.75;64.87;99902.69;2038007;28;20273;-48
2022/05/28 04:54:28;;;;;;;;;;;;;;;20.75;64.96;99900.72;2039143;28;19914;-46
2022/05/28 04:55:29;;;;;;;;;;;;;;;20.74;65.06;99896.41;2042809;28;19906;-50
2022/05/28 04:56:29;;;;;;;;;;;;;;;20.73;65.31;99894.84;2040275;28;19968;-47
2022/05/28 04:57:29;;;;;;;;;;;;;;;20.74;65.84;99904.66;2041113;28;19906;-50
2022/05/28 04:58:30;;;;;;;;;;;;;;;20.74;65.95;99901.91;2049107;28;19925;-50
2022/05/28 04:59:30;;;;;;;;;;;;;;;20.73;66.43;99905.88;2051272;28;19918;-49
2022/05/28 05:00:30;;;;;;;;;;;;;;;20.72;66.34;99895.31;2043027;28;20512;-54
2022/05/28 05:01:30;;;;;;;;;;;;;;;20.72;65.83;99904.34;2043909;28;19910;-55
2022/05/28 05:02:31;;;;;;;;;;;;;;;20.71;66.23;99902.00;2043176;28;19918;-53
2022/05/28 05:03:32;;;;;;;;;;;;;;;20.71;65.86;99907.50;2044049;28;19924;-53
2022/05/28 05:04:32;;;;;;;;;;;;;;;20.72;65.51;99901.59;2045197;28;19980;-54
2022/05/28 05:05:33;;;;;;;;;;;;;;;20.72;65.34;99900.81;2044202;28;19984;-55
2022/05/28 05:06:33;;;;;;;;;;;;;;;20.72;65.17;99907.09;2043071;28;19917;-55
2022/05/28 05:07:33;;;;;;;;;;;;;;;20.70;65.06;99895.72;2041933;28;19918;-54
2022/05/28 05:08:34;;;;;;;;;;;;;;;20.71;65.01;99897.28;2044059;28;20299;-54
2022/05/28 05:09:34;;;;;;;;;;;;;;;20.71;65.01;99896.50;2045989;28;19910;-54
2022/05/28 05:10:35;;;;;;;;;;;;;;;20.71;65.10;99897.28;2042661;28;19914;-53
2022/05/28 05:11:35;;;;;;;;;;;;;;;20.71;64.91;99893.75;2045134;28;19906;-53
2022/05/28 05:12:35;;;;;;;;;;;;;;;20.69;65.24;99891.41;2045380;28;20560;-54
2022/05/28 05:13:36;;;;;;;;;;;;;;;20.70;65.05;99894.94;2042363;28;19940;-55
2022/05/28 05:14:36;;;;;;;;;;;;;;;20.69;65.19;99899.69;2044410;28;19949;-56
2022/05/28 05:15:38;;;;;;;;;;;;;;;20.69;65.50;99888.66;2045424;28;19969;-57
2022/05/28 05:16:38;;;;;;;;;;;;;;;20.67;65.25;99899.34;2043935;28;19925;-54
2022/05/28 05:17:38;;;;;;;;;;;;;;;20.67;65.08;99902.84;2043999;28;20612;-54
2022/05/28 05:18:39;;;;;;;;;;;;;;;20.67;65.33;99896.59;2044525;28;20147;-53
2022/05/28 05:19:39;;;;;;;;;;;;;;;20.67;65.32;99885.59;2045431;28;19929;-54
2022/05/28 05:20:40;;;;;;;;;;;;;;;20.69;65.31;99893.41;2044901;28;20179;-56
2022/05/28 05:21:40;;;;;;;;;;;;;;;20.68;65.22;99892.63;2043998;28;19933;-56